sensor_id;sensor_type;location;lat;lon;timestamp;P1;durP1;ratioP1;P2;durP2;ratioP2
14292;SDS011;62290;59.420;17.842;2023-07-31T00:02:14;2.38;;;1.60;;
14292;SDS011;62290;59.420;17.842;2023-07-31T00:04:43;1.63;;;1.42;;
14292;SDS011;62290;59.420;17.842;2023-07-31T00:07:11;2.00;;;1.75;;
14292;SDS011;62290;59.420;17.842;2023-07-31T00:09:39;2.00;;;1.70;;
14292;SDS011;62290;59.420;17.842;2023-07-31T00:12:08;1.58;;;1.48;;
14292;SDS011;62290;59.420;17.842;2023-07-31T00:14:36;3.80;;;2.00;;
14292;SDS011;62290;59.420;17.842;2023-07-31T00:17:04;2.78;;;1.77;;
14292;SDS011;62290;59.420;17.842;2023-07-31T00:19:32;2.17;;;1.60;;
14292;SDS011;62290;59.420;17.842;2023-07-31T00:22:02;3.08;;;1.60;;
14292;SDS011;62290;59.420;17.842;2023-07-31T00:24:30;2.17;;;1.70;;
14292;SDS011;62290;59.420;17.842;2023-07-31T00:26:58;1.58;;;1.48;;
14292;SDS011;62290;59.420;17.842;2023-07-31T00:29:26;6.25;;;1.83;;
14292;SDS011;62290;59.420;17.842;2023-07-31T00:31:54;2.22;;;2.00;;
14292;SDS011;62290;59.420;17.842;2023-07-31T00:34:22;3.25;;;1.80;;
14292;SDS011;62290;59.420;17.842;2023-07-31T00:36:50;3.30;;;2.08;;
14292;SDS011;62290;59.420;17.842;2023-07-31T00:39:19;2.90;;;1.95;;
14292;SDS011;62290;59.420;17.842;2023-07-31T00:41:47;1.90;;;1.60;;
14292;SDS011;62290;59.420;17.842;2023-07-31T00:44:16;2.05;;;1.73;;
14292;SDS011;62290;59.420;17.842;2023-07-31T00:46:44;1.80;;;1.70;;
14292;SDS011;62290;59.420;17.842;2023-07-31T00:49:12;4.38;;;2.03;;
14292;SDS011;62290;59.420;17.842;2023-07-31T00:51:41;2.47;;;1.95;;
14292;SDS011;62290;59.420;17.842;2023-07-31T00:54:09;2.55;;;2.22;;
14292;SDS011;62290;59.420;17.842;2023-07-31T00:56:39;1.70;;;1.52;;
14292;SDS011;62290;59.420;17.842;2023-07-31T00:59:08;2.90;;;2.10;;
14292;SDS011;62290;59.420;17.842;2023-07-31T01:01:36;2.08;;;1.80;;
14292;SDS011;62290;59.420;17.842;2023-07-31T01:04:04;4.55;;;2.20;;
14292;SDS011;62290;59.420;17.842;2023-07-31T01:06:33;1.80;;;1.70;;
14292;SDS011;62290;59.420;17.842;2023-07-31T01:09:06;3.33;;;2.10;;
14292;SDS011;62290;59.420;17.842;2023-07-31T01:11:42;2.28;;;2.00;;
14292;SDS011;62290;59.420;17.842;2023-07-31T01:14:16;3.10;;;2.05;;
14292;SDS011;62290;59.420;17.842;2023-07-31T01:16:44;2.42;;;1.83;;
14292;SDS011;62290;59.420;17.842;2023-07-31T01:19:13;2.85;;;2.33;;
14292;SDS011;62290;59.420;17.842;2023-07-31T01:24:48;2.05;;;1.70;;
14292;SDS011;62290;59.420;17.842;2023-07-31T01:27:31;2.30;;;2.00;;
14292;SDS011;62290;59.420;17.842;2023-07-31T01:30:08;3.15;;;1.83;;
14292;SDS011;62290;59.420;17.842;2023-07-31T01:32:42;2.55;;;2.33;;
14292;SDS011;62290;59.420;17.842;2023-07-31T01:35:11;2.75;;;2.00;;
14292;SDS011;62290;59.420;17.842;2023-07-31T01:37:39;2.83;;;2.00;;
14292;SDS011;62290;59.420;17.842;2023-07-31T01:40:09;2.08;;;1.80;;
14292;SDS011;62290;59.420;17.842;2023-07-31T01:42:38;4.15;;;1.77;;
14292;SDS011;62290;59.420;17.842;2023-07-31T01:45:07;2.05;;;1.80;;
14292;SDS011;62290;59.420;17.842;2023-07-31T01:47:36;3.05;;;2.00;;
14292;SDS011;62290;59.420;17.842;2023-07-31T01:50:05;4.35;;;2.22;;
14292;SDS011;62290;59.420;17.842;2023-07-31T01:52:33;2.50;;;2.13;;
14292;SDS011;62290;59.420;17.842;2023-07-31T01:55:01;2.25;;;2.05;;
14292;SDS011;62290;59.420;17.842;2023-07-31T01:57:29;2.38;;;1.95;;
14292;SDS011;62290;59.420;17.842;2023-07-31T01:59:59;2.78;;;2.10;;
14292;SDS011;62290;59.420;17.842;2023-07-31T02:02:37;3.15;;;2.00;;
14292;SDS011;62290;59.420;17.842;2023-07-31T02:05:05;2.63;;;1.90;;
14292;SDS011;62290;59.420;17.842;2023-07-31T02:07:34;1.98;;;1.77;;
14292;SDS011;62290;59.420;17.842;2023-07-31T02:10:02;2.13;;;1.92;;
14292;SDS011;62290;59.420;17.842;2023-07-31T02:12:30;2.30;;;2.05;;
14292;SDS011;62290;59.420;17.842;2023-07-31T02:15:02;3.60;;;2.25;;
14292;SDS011;62290;59.420;17.842;2023-07-31T02:17:30;3.45;;;2.13;;
14292;SDS011;62290;59.420;17.842;2023-07-31T02:19:59;2.08;;;1.88;;
14292;SDS011;62290;59.420;17.842;2023-07-31T02:22:28;3.03;;;2.00;;
14292;SDS011;62290;59.420;17.842;2023-07-31T02:24:56;4.55;;;2.17;;
14292;SDS011;62290;59.420;17.842;2023-07-31T02:27:24;2.75;;;2.35;;
14292;SDS011;62290;59.420;17.842;2023-07-31T02:29:54;2.63;;;2.20;;
14292;SDS011;62290;59.420;17.842;2023-07-31T02:32:23;2.67;;;2.20;;
14292;SDS011;62290;59.420;17.842;2023-07-31T02:34:51;2.78;;;2.35;;
14292;SDS011;62290;59.420;17.842;2023-07-31T02:37:19;2.55;;;1.88;;
14292;SDS011;62290;59.420;17.842;2023-07-31T02:39:48;2.80;;;2.20;;
14292;SDS011;62290;59.420;17.842;2023-07-31T02:42:16;2.80;;;1.98;;
14292;SDS011;62290;59.420;17.842;2023-07-31T02:44:44;4.05;;;1.98;;
14292;SDS011;62290;59.420;17.842;2023-07-31T02:47:12;2.42;;;2.22;;
14292;SDS011;62290;59.420;17.842;2023-07-31T02:49:41;2.80;;;2.08;;
14292;SDS011;62290;59.420;17.842;2023-07-31T02:52:09;3.38;;;2.47;;
14292;SDS011;62290;59.420;17.842;2023-07-31T02:54:37;2.17;;;1.85;;
14292;SDS011;62290;59.420;17.842;2023-07-31T02:57:05;2.40;;;2.20;;
14292;SDS011;62290;59.420;17.842;2023-07-31T02:59:33;3.55;;;1.90;;
14292;SDS011;62290;59.420;17.842;2023-07-31T03:02:02;3.08;;;2.00;;
14292;SDS011;62290;59.420;17.842;2023-07-31T03:04:30;3.15;;;1.83;;
14292;SDS011;62290;59.420;17.842;2023-07-31T03:06:59;3.05;;;2.20;;
14292;SDS011;62290;59.420;17.842;2023-07-31T03:09:27;2.58;;;2.05;;
14292;SDS011;62290;59.420;17.842;2023-07-31T03:11:55;2.50;;;1.92;;
14292;SDS011;62290;59.420;17.842;2023-07-31T03:14:23;2.42;;;2.08;;
14292;SDS011;62290;59.420;17.842;2023-07-31T03:16:53;2.30;;;2.00;;
14292;SDS011;62290;59.420;17.842;2023-07-31T03:19:21;3.10;;;2.22;;
14292;SDS011;62290;59.420;17.842;2023-07-31T03:21:49;2.20;;;2.00;;
14292;SDS011;62290;59.420;17.842;2023-07-31T03:24:18;2.15;;;1.95;;
14292;SDS011;62290;59.420;17.842;2023-07-31T03:26:46;2.38;;;2.03;;
14292;SDS011;62290;59.420;17.842;2023-07-31T03:29:14;2.15;;;1.95;;
14292;SDS011;62290;59.420;17.842;2023-07-31T03:31:43;2.35;;;2.15;;
14292;SDS011;62290;59.420;17.842;2023-07-31T03:34:11;2.42;;;2.22;;
14292;SDS011;62290;59.420;17.842;2023-07-31T03:36:39;2.45;;;1.85;;
14292;SDS011;62290;59.420;17.842;2023-07-31T03:39:08;2.17;;;1.80;;
14292;SDS011;62290;59.420;17.842;2023-07-31T03:41:37;4.18;;;2.50;;
14292;SDS011;62290;59.420;17.842;2023-07-31T03:44:05;3.60;;;2.03;;
14292;SDS011;62290;59.420;17.842;2023-07-31T03:46:34;5.35;;;1.80;;
14292;SDS011;62290;59.420;17.842;2023-07-31T03:49:03;2.45;;;1.80;;
14292;SDS011;62290;59.420;17.842;2023-07-31T03:51:31;4.13;;;2.10;;
14292;SDS011;62290;59.420;17.842;2023-07-31T03:54:00;2.90;;;2.05;;
14292;SDS011;62290;59.420;17.842;2023-07-31T03:56:28;2.45;;;2.10;;
14292;SDS011;62290;59.420;17.842;2023-07-31T03:59:01;3.17;;;2.15;;
14292;SDS011;62290;59.420;17.842;2023-07-31T04:01:29;2.22;;;2.03;;
14292;SDS011;62290;59.420;17.842;2023-07-31T04:03:57;3.78;;;2.15;;
14292;SDS011;62290;59.420;17.842;2023-07-31T04:06:25;2.10;;;1.90;;
14292;SDS011;62290;59.420;17.842;2023-07-31T04:08:53;2.58;;;1.90;;
14292;SDS011;62290;59.420;17.842;2023-07-31T04:11:21;2.17;;;1.90;;
14292;SDS011;62290;59.420;17.842;2023-07-31T04:13:49;2.72;;;1.98;;
14292;SDS011;62290;59.420;17.842;2023-07-31T04:16:19;2.78;;;2.28;;
14292;SDS011;62290;59.420;17.842;2023-07-31T04:18:47;2.65;;;2.10;;
14292;SDS011;62290;59.420;17.842;2023-07-31T04:21:15;3.15;;;2.22;;
14292;SDS011;62290;59.420;17.842;2023-07-31T04:23:44;2.90;;;2.17;;
14292;SDS011;62290;59.420;17.842;2023-07-31T04:26:12;2.80;;;2.47;;
14292;SDS011;62290;59.420;17.842;2023-07-31T04:28:40;3.33;;;3.00;;
14292;SDS011;62290;59.420;17.842;2023-07-31T04:31:08;2.60;;;2.38;;
14292;SDS011;62290;59.420;17.842;2023-07-31T04:33:37;2.45;;;2.25;;
14292;SDS011;62290;59.420;17.842;2023-07-31T04:36:05;2.70;;;2.33;;
14292;SDS011;62290;59.420;17.842;2023-07-31T04:38:33;3.58;;;2.80;;
14292;SDS011;62290;59.420;17.842;2023-07-31T04:41:01;6.15;;;2.45;;
14292;SDS011;62290;59.420;17.842;2023-07-31T04:43:30;4.07;;;2.58;;
14292;SDS011;62290;59.420;17.842;2023-07-31T04:45:58;3.70;;;2.83;;
14292;SDS011;62290;59.420;17.842;2023-07-31T04:48:26;3.03;;;2.55;;
14292;SDS011;62290;59.420;17.842;2023-07-31T04:50:55;4.25;;;2.80;;
14292;SDS011;62290;59.420;17.842;2023-07-31T04:53:24;3.13;;;2.83;;
14292;SDS011;62290;59.420;17.842;2023-07-31T04:55:52;2.75;;;2.55;;
14292;SDS011;62290;59.420;17.842;2023-07-31T04:58:20;4.05;;;2.80;;
14292;SDS011;62290;59.420;17.842;2023-07-31T05:00:48;5.63;;;3.10;;
14292;SDS011;62290;59.420;17.842;2023-07-31T05:03:16;2.55;;;2.35;;
14292;SDS011;62290;59.420;17.842;2023-07-31T05:05:44;3.08;;;2.78;;
14292;SDS011;62290;59.420;17.842;2023-07-31T05:08:13;3.80;;;2.75;;
14292;SDS011;62290;59.420;17.842;2023-07-31T05:10:43;4.55;;;2.78;;
14292;SDS011;62290;59.420;17.842;2023-07-31T05:13:11;4.18;;;3.20;;
14292;SDS011;62290;59.420;17.842;2023-07-31T05:15:40;3.30;;;2.90;;
14292;SDS011;62290;59.420;17.842;2023-07-31T05:18:08;5.07;;;2.90;;
14292;SDS011;62290;59.420;17.842;2023-07-31T05:20:36;2.45;;;2.25;;
14292;SDS011;62290;59.420;17.842;2023-07-31T05:23:04;3.80;;;2.83;;
14292;SDS011;62290;59.420;17.842;2023-07-31T05:25:34;5.75;;;2.92;;
14292;SDS011;62290;59.420;17.842;2023-07-31T05:28:02;3.10;;;2.83;;
14292;SDS011;62290;59.420;17.842;2023-07-31T05:30:30;4.35;;;2.60;;
14292;SDS011;62290;59.420;17.842;2023-07-31T05:32:58;5.68;;;3.20;;
14292;SDS011;62290;59.420;17.842;2023-07-31T05:35:26;3.40;;;2.75;;
14292;SDS011;62290;59.420;17.842;2023-07-31T05:37:54;3.80;;;3.20;;
14292;SDS011;62290;59.420;17.842;2023-07-31T05:40:22;2.95;;;2.65;;
14292;SDS011;62290;59.420;17.842;2023-07-31T05:42:52;3.67;;;2.90;;
14292;SDS011;62290;59.420;17.842;2023-07-31T05:45:20;6.72;;;2.88;;
14292;SDS011;62290;59.420;17.842;2023-07-31T05:47:48;3.33;;;2.90;;
14292;SDS011;62290;59.420;17.842;2023-07-31T05:50:16;3.72;;;2.70;;
14292;SDS011;62290;59.420;17.842;2023-07-31T05:52:44;3.65;;;3.17;;
14292;SDS011;62290;59.420;17.842;2023-07-31T05:55:12;3.67;;;2.80;;
14292;SDS011;62290;59.420;17.842;2023-07-31T05:57:40;2.70;;;2.47;;
14292;SDS011;62290;59.420;17.842;2023-07-31T06:00:10;5.18;;;3.08;;
14292;SDS011;62290;59.420;17.842;2023-07-31T06:02:39;4.20;;;3.22;;
14292;SDS011;62290;59.420;17.842;2023-07-31T06:05:07;5.45;;;2.95;;
14292;SDS011;62290;59.420;17.842;2023-07-31T06:07:36;4.65;;;2.88;;
14292;SDS011;62290;59.420;17.842;2023-07-31T06:10:05;4.10;;;2.40;;
14292;SDS011;62290;59.420;17.842;2023-07-31T06:12:34;4.20;;;2.80;;
14292;SDS011;62290;59.420;17.842;2023-07-31T06:15:03;4.10;;;3.08;;
14292;SDS011;62290;59.420;17.842;2023-07-31T06:17:33;3.47;;;2.55;;
14292;SDS011;62290;59.420;17.842;2023-07-31T06:20:01;3.95;;;2.60;;
14292;SDS011;62290;59.420;17.842;2023-07-31T06:22:31;5.78;;;2.85;;
14292;SDS011;62290;59.420;17.842;2023-07-31T06:24:59;3.97;;;2.95;;
14292;SDS011;62290;59.420;17.842;2023-07-31T06:27:27;3.50;;;2.50;;
14292;SDS011;62290;59.420;17.842;2023-07-31T06:29:55;2.40;;;2.17;;
14292;SDS011;62290;59.420;17.842;2023-07-31T06:32:24;2.97;;;2.25;;
14292;SDS011;62290;59.420;17.842;2023-07-31T06:34:53;4.63;;;2.70;;
14292;SDS011;62290;59.420;17.842;2023-07-31T06:37:21;4.57;;;2.47;;
14292;SDS011;62290;59.420;17.842;2023-07-31T06:39:50;3.03;;;2.40;;
14292;SDS011;62290;59.420;17.842;2023-07-31T06:42:18;4.10;;;2.78;;
14292;SDS011;62290;59.420;17.842;2023-07-31T06:44:46;2.63;;;2.30;;
14292;SDS011;62290;59.420;17.842;2023-07-31T06:47:14;3.35;;;2.20;;
14292;SDS011;62290;59.420;17.842;2023-07-31T06:49:42;4.03;;;2.70;;
14292;SDS011;62290;59.420;17.842;2023-07-31T06:52:11;3.03;;;2.25;;
14292;SDS011;62290;59.420;17.842;2023-07-31T06:54:39;3.30;;;2.05;;
14292;SDS011;62290;59.420;17.842;2023-07-31T06:57:07;4.75;;;2.72;;
14292;SDS011;62290;59.420;17.842;2023-07-31T06:59:35;2.05;;;1.80;;
14292;SDS011;62290;59.420;17.842;2023-07-31T07:02:04;3.63;;;2.00;;
14292;SDS011;62290;59.420;17.842;2023-07-31T07:04:33;5.03;;;2.05;;
14292;SDS011;62290;59.420;17.842;2023-07-31T07:07:01;3.72;;;1.90;;
14292;SDS011;62290;59.420;17.842;2023-07-31T07:09:30;2.30;;;1.80;;
14292;SDS011;62290;59.420;17.842;2023-07-31T07:11:58;4.40;;;1.85;;
14292;SDS011;62290;59.420;17.842;2023-07-31T07:14:26;3.42;;;1.73;;
14292;SDS011;62290;59.420;17.842;2023-07-31T07:16:54;2.85;;;1.77;;
14292;SDS011;62290;59.420;17.842;2023-07-31T07:19:22;2.63;;;1.70;;
14292;SDS011;62290;59.420;17.842;2023-07-31T07:21:50;2.95;;;1.67;;
14292;SDS011;62290;59.420;17.842;2023-07-31T07:24:18;3.05;;;1.77;;
14292;SDS011;62290;59.420;17.842;2023-07-31T07:26:48;2.70;;;1.52;;
14292;SDS011;62290;59.420;17.842;2023-07-31T07:29:16;2.63;;;1.60;;
14292;SDS011;62290;59.420;17.842;2023-07-31T07:31:44;4.22;;;2.00;;
14292;SDS011;62290;59.420;17.842;2023-07-31T07:34:12;2.88;;;1.70;;
14292;SDS011;62290;59.420;17.842;2023-07-31T07:36:40;2.30;;;1.40;;
14292;SDS011;62290;59.420;17.842;2023-07-31T07:39:09;2.95;;;1.52;;
14292;SDS011;62290;59.420;17.842;2023-07-31T07:41:37;2.20;;;1.38;;
14292;SDS011;62290;59.420;17.842;2023-07-31T07:44:07;2.60;;;1.38;;
14292;SDS011;62290;59.420;17.842;2023-07-31T07:46:35;2.40;;;1.48;;
14292;SDS011;62290;59.420;17.842;2023-07-31T07:49:04;5.22;;;1.60;;
14292;SDS011;62290;59.420;17.842;2023-07-31T07:51:32;2.63;;;1.40;;
14292;SDS011;62290;59.420;17.842;2023-07-31T07:54:00;3.58;;;1.60;;
14292;SDS011;62290;59.420;17.842;2023-07-31T07:56:29;2.30;;;1.45;;
14292;SDS011;62290;59.420;17.842;2023-07-31T07:58:57;3.78;;;1.80;;
14292;SDS011;62290;59.420;17.842;2023-07-31T08:01:26;2.80;;;1.50;;
14292;SDS011;62290;59.420;17.842;2023-07-31T08:03:54;2.22;;;1.50;;
14292;SDS011;62290;59.420;17.842;2023-07-31T08:06:22;3.67;;;1.40;;
14292;SDS011;62290;59.420;17.842;2023-07-31T08:08:50;2.00;;;1.23;;
14292;SDS011;62290;59.420;17.842;2023-07-31T08:11:18;1.55;;;1.45;;
14292;SDS011;62290;59.420;17.842;2023-07-31T08:13:46;2.88;;;1.35;;
14292;SDS011;62290;59.420;17.842;2023-07-31T08:16:14;2.78;;;1.50;;
14292;SDS011;62290;59.420;17.842;2023-07-31T08:18:44;2.25;;;1.42;;
14292;SDS011;62290;59.420;17.842;2023-07-31T08:21:12;2.67;;;1.42;;
14292;SDS011;62290;59.420;17.842;2023-07-31T08:23:40;3.17;;;1.50;;
14292;SDS011;62290;59.420;17.842;2023-07-31T08:26:09;2.88;;;1.80;;
14292;SDS011;62290;59.420;17.842;2023-07-31T08:28:42;3.65;;;1.35;;
14292;SDS011;62290;59.420;17.842;2023-07-31T08:31:10;2.80;;;1.20;;
14292;SDS011;62290;59.420;17.842;2023-07-31T08:33:39;2.97;;;1.30;;
14292;SDS011;62290;59.420;17.842;2023-07-31T08:36:09;3.35;;;1.48;;
14292;SDS011;62290;59.420;17.842;2023-07-31T08:38:37;2.85;;;1.58;;
14292;SDS011;62290;59.420;17.842;2023-07-31T08:41:05;3.67;;;1.30;;
14292;SDS011;62290;59.420;17.842;2023-07-31T08:43:33;5.30;;;1.73;;
14292;SDS011;62290;59.420;17.842;2023-07-31T08:46:03;1.95;;;1.30;;
14292;SDS011;62290;59.420;17.842;2023-07-31T08:48:31;3.15;;;1.60;;
14292;SDS011;62290;59.420;17.842;2023-07-31T08:51:00;3.50;;;1.33;;
14292;SDS011;62290;59.420;17.842;2023-07-31T08:53:30;2.67;;;1.38;;
14292;SDS011;62290;59.420;17.842;2023-07-31T08:55:59;3.75;;;1.35;;
14292;SDS011;62290;59.420;17.842;2023-07-31T08:58:27;2.13;;;1.33;;
14292;SDS011;62290;59.420;17.842;2023-07-31T09:01:00;6.03;;;1.40;;
14292;SDS011;62290;59.420;17.842;2023-07-31T09:03:32;3.25;;;1.75;;
14292;SDS011;62290;59.420;17.842;2023-07-31T09:06:02;2.92;;;1.27;;
14292;SDS011;62290;59.420;17.842;2023-07-31T09:08:34;2.90;;;1.45;;
14292;SDS011;62290;59.420;17.842;2023-07-31T09:11:02;4.15;;;1.63;;
14292;SDS011;62290;59.420;17.842;2023-07-31T09:13:31;3.70;;;1.63;;
14292;SDS011;62290;59.420;17.842;2023-07-31T09:15:59;2.95;;;1.50;;
14292;SDS011;62290;59.420;17.842;2023-07-31T09:18:28;4.10;;;1.52;;
14292;SDS011;62290;59.420;17.842;2023-07-31T09:21:02;1.50;;;1.23;;
14292;SDS011;62290;59.420;17.842;2023-07-31T09:23:42;3.97;;;1.55;;
14292;SDS011;62290;59.420;17.842;2023-07-31T09:26:10;4.35;;;1.27;;
14292;SDS011;62290;59.420;17.842;2023-07-31T09:28:55;4.53;;;1.50;;
14292;SDS011;62290;59.420;17.842;2023-07-31T09:31:31;7.30;;;1.70;;
14292;SDS011;62290;59.420;17.842;2023-07-31T09:34:06;4.43;;;1.75;;
14292;SDS011;62290;59.420;17.842;2023-07-31T09:36:39;2.60;;;1.10;;
14292;SDS011;62290;59.420;17.842;2023-07-31T09:39:10;3.70;;;1.70;;
14292;SDS011;62290;59.420;17.842;2023-07-31T09:41:40;3.35;;;1.45;;
14292;SDS011;62290;59.420;17.842;2023-07-31T09:44:10;6.00;;;2.55;;
14292;SDS011;62290;59.420;17.842;2023-07-31T09:46:39;6.35;;;3.15;;
14292;SDS011;62290;59.420;17.842;2023-07-31T09:49:08;10.60;;;5.95;;
14292;SDS011;62290;59.420;17.842;2023-07-31T09:51:36;8.88;;;5.28;;
14292;SDS011;62290;59.420;17.842;2023-07-31T09:54:10;6.30;;;3.75;;
14292;SDS011;62290;59.420;17.842;2023-07-31T09:56:42;9.43;;;3.15;;
14292;SDS011;62290;59.420;17.842;2023-07-31T09:59:12;6.22;;;3.10;;
14292;SDS011;62290;59.420;17.842;2023-07-31T10:01:41;3.08;;;2.05;;
14292;SDS011;62290;59.420;17.842;2023-07-31T10:04:10;5.93;;;1.98;;
14292;SDS011;62290;59.420;17.842;2023-07-31T10:06:40;6.43;;;2.03;;
14292;SDS011;62290;59.420;17.842;2023-07-31T10:09:11;3.67;;;1.77;;
14292;SDS011;62290;59.420;17.842;2023-07-31T10:11:45;3.95;;;1.73;;
14292;SDS011;62290;59.420;17.842;2023-07-31T10:14:17;2.72;;;1.65;;
14292;SDS011;62290;59.420;17.842;2023-07-31T10:16:48;4.30;;;1.70;;
14292;SDS011;62290;59.420;17.842;2023-07-31T10:19:17;3.67;;;1.65;;
14292;SDS011;62290;59.420;17.842;2023-07-31T10:21:45;3.25;;;1.48;;
14292;SDS011;62290;59.420;17.842;2023-07-31T10:24:17;3.85;;;1.55;;
14292;SDS011;62290;59.420;17.842;2023-07-31T10:26:45;3.33;;;1.70;;
14292;SDS011;62290;59.420;17.842;2023-07-31T10:29:16;5.28;;;1.55;;
14292;SDS011;62290;59.420;17.842;2023-07-31T10:31:46;4.45;;;1.50;;
14292;SDS011;62290;59.420;17.842;2023-07-31T10:34:15;1.95;;;1.45;;
14292;SDS011;62290;59.420;17.842;2023-07-31T10:36:44;3.40;;;1.58;;
14292;SDS011;62290;59.420;17.842;2023-07-31T10:42:09;3.08;;;1.50;;
14292;SDS011;62290;59.420;17.842;2023-07-31T10:44:38;3.38;;;1.50;;
14292;SDS011;62290;59.420;17.842;2023-07-31T10:47:14;2.95;;;1.15;;
14292;SDS011;62290;59.420;17.842;2023-07-31T10:49:44;3.55;;;1.77;;
14292;SDS011;62290;59.420;17.842;2023-07-31T10:52:13;2.92;;;1.55;;
14292;SDS011;62290;59.420;17.842;2023-07-31T10:54:43;4.28;;;1.73;;
14292;SDS011;62290;59.420;17.842;2023-07-31T10:57:18;4.63;;;1.50;;
14292;SDS011;62290;59.420;17.842;2023-07-31T10:59:48;3.65;;;1.33;;
14292;SDS011;62290;59.420;17.842;2023-07-31T11:02:23;2.20;;;1.40;;
14292;SDS011;62290;59.420;17.842;2023-07-31T11:05:06;3.38;;;1.42;;
14292;SDS011;62290;59.420;17.842;2023-07-31T11:07:47;9.25;;;2.65;;
14292;SDS011;62290;59.420;17.842;2023-07-31T11:10:18;12.55;;;2.65;;
14292;SDS011;62290;59.420;17.842;2023-07-31T11:12:46;10.45;;;2.40;;
14292;SDS011;62290;59.420;17.842;2023-07-31T11:15:14;17.73;;;2.55;;
14292;SDS011;62290;59.420;17.842;2023-07-31T11:17:42;9.93;;;2.55;;
14292;SDS011;62290;59.420;17.842;2023-07-31T11:20:10;12.30;;;2.00;;
14292;SDS011;62290;59.420;17.842;2023-07-31T11:22:39;4.82;;;2.30;;
14292;SDS011;62290;59.420;17.842;2023-07-31T11:25:08;5.55;;;2.25;;
14292;SDS011;62290;59.420;17.842;2023-07-31T11:27:39;5.80;;;1.70;;
14292;SDS011;62290;59.420;17.842;2023-07-31T11:30:09;4.47;;;1.63;;
14292;SDS011;62290;59.420;17.842;2023-07-31T11:32:37;9.05;;;2.10;;
14292;SDS011;62290;59.420;17.842;2023-07-31T11:35:06;5.32;;;1.92;;
14292;SDS011;62290;59.420;17.842;2023-07-31T11:37:38;5.63;;;1.88;;
14292;SDS011;62290;59.420;17.842;2023-07-31T11:40:07;4.00;;;1.27;;
14292;SDS011;62290;59.420;17.842;2023-07-31T11:42:36;5.95;;;1.60;;
14292;SDS011;62290;59.420;17.842;2023-07-31T11:45:06;6.30;;;2.00;;
14292;SDS011;62290;59.420;17.842;2023-07-31T11:47:36;3.67;;;1.50;;
14292;SDS011;62290;59.420;17.842;2023-07-31T11:50:05;3.33;;;1.30;;
14292;SDS011;62290;59.420;17.842;2023-07-31T11:52:38;3.15;;;1.58;;
14292;SDS011;62290;59.420;17.842;2023-07-31T11:55:10;2.63;;;1.40;;
14292;SDS011;62290;59.420;17.842;2023-07-31T11:57:39;6.55;;;1.92;;
14292;SDS011;62290;59.420;17.842;2023-07-31T12:00:11;2.00;;;1.25;;
14292;SDS011;62290;59.420;17.842;2023-07-31T12:02:40;4.03;;;1.48;;
14292;SDS011;62290;59.420;17.842;2023-07-31T12:05:10;4.97;;;1.25;;
14292;SDS011;62290;59.420;17.842;2023-07-31T12:07:43;2.70;;;1.27;;
14292;SDS011;62290;59.420;17.842;2023-07-31T12:10:22;3.70;;;1.67;;
14292;SDS011;62290;59.420;17.842;2023-07-31T12:12:58;3.45;;;1.42;;
14292;SDS011;62290;59.420;17.842;2023-07-31T12:15:39;3.90;;;1.30;;
14292;SDS011;62290;59.420;17.842;2023-07-31T12:18:09;3.63;;;1.50;;
14292;SDS011;62290;59.420;17.842;2023-07-31T12:20:41;2.97;;;1.20;;
14292;SDS011;62290;59.420;17.842;2023-07-31T12:23:14;4.93;;;1.30;;
14292;SDS011;62290;59.420;17.842;2023-07-31T12:25:44;1.85;;;1.40;;
14292;SDS011;62290;59.420;17.842;2023-07-31T12:28:12;1.95;;;1.33;;
14292;SDS011;62290;59.420;17.842;2023-07-31T12:30:41;3.28;;;1.10;;
14292;SDS011;62290;59.420;17.842;2023-07-31T12:33:12;4.07;;;1.40;;
14292;SDS011;62290;59.420;17.842;2023-07-31T12:35:44;3.38;;;1.35;;
14292;SDS011;62290;59.420;17.842;2023-07-31T12:38:13;2.08;;;1.13;;
14292;SDS011;62290;59.420;17.842;2023-07-31T12:40:41;3.38;;;1.30;;
14292;SDS011;62290;59.420;17.842;2023-07-31T12:43:10;4.95;;;1.45;;
14292;SDS011;62290;59.420;17.842;2023-07-31T12:45:37;2.95;;;1.20;;
14292;SDS011;62290;59.420;17.842;2023-07-31T12:48:07;3.17;;;1.50;;
14292;SDS011;62290;59.420;17.842;2023-07-31T12:50:35;2.15;;;1.38;;
14292;SDS011;62290;59.420;17.842;2023-07-31T12:53:04;2.15;;;1.20;;
14292;SDS011;62290;59.420;17.842;2023-07-31T12:55:32;2.97;;;1.23;;
14292;SDS011;62290;59.420;17.842;2023-07-31T12:58:01;3.67;;;1.38;;
14292;SDS011;62290;59.420;17.842;2023-07-31T13:00:29;2.63;;;1.38;;
14292;SDS011;62290;59.420;17.842;2023-07-31T13:02:57;2.40;;;1.38;;
14292;SDS011;62290;59.420;17.842;2023-07-31T13:05:26;2.45;;;1.02;;
14292;SDS011;62290;59.420;17.842;2023-07-31T13:07:54;3.92;;;1.30;;
14292;SDS011;62290;59.420;17.842;2023-07-31T13:10:23;2.72;;;1.00;;
14292;SDS011;62290;59.420;17.842;2023-07-31T13:12:53;1.77;;;1.20;;
14292;SDS011;62290;59.420;17.842;2023-07-31T13:15:21;2.70;;;1.38;;
14292;SDS011;62290;59.420;17.842;2023-07-31T13:17:49;3.67;;;1.38;;
14292;SDS011;62290;59.420;17.842;2023-07-31T13:20:17;2.28;;;1.30;;
14292;SDS011;62290;59.420;17.842;2023-07-31T13:22:46;1.92;;;1.38;;
14292;SDS011;62290;59.420;17.842;2023-07-31T13:25:14;1.65;;;1.17;;
14292;SDS011;62290;59.420;17.842;2023-07-31T13:27:42;2.90;;;1.55;;
14292;SDS011;62290;59.420;17.842;2023-07-31T13:30:10;2.63;;;1.40;;
14292;SDS011;62290;59.420;17.842;2023-07-31T13:32:38;1.90;;;1.13;;
14292;SDS011;62290;59.420;17.842;2023-07-31T13:35:07;1.77;;;1.05;;
14292;SDS011;62290;59.420;17.842;2023-07-31T13:37:37;2.08;;;1.10;;
14292;SDS011;62290;59.420;17.842;2023-07-31T13:40:07;1.63;;;1.20;;
14292;SDS011;62290;59.420;17.842;2023-07-31T13:42:36;2.42;;;1.10;;
14292;SDS011;62290;59.420;17.842;2023-07-31T13:45:05;3.22;;;1.02;;
14292;SDS011;62290;59.420;17.842;2023-07-31T13:47:33;2.38;;;1.30;;
14292;SDS011;62290;59.420;17.842;2023-07-31T13:50:04;4.47;;;0.93;;
14292;SDS011;62290;59.420;17.842;2023-07-31T13:52:32;1.83;;;1.17;;
14292;SDS011;62290;59.420;17.842;2023-07-31T13:55:00;1.63;;;1.00;;
14292;SDS011;62290;59.420;17.842;2023-07-31T13:57:30;2.85;;;1.50;;
14292;SDS011;62290;59.420;17.842;2023-07-31T13:59:58;1.13;;;0.90;;
14292;SDS011;62290;59.420;17.842;2023-07-31T14:02:26;2.28;;;1.02;;
14292;SDS011;62290;59.420;17.842;2023-07-31T14:04:54;1.35;;;1.00;;
14292;SDS011;62290;59.420;17.842;2023-07-31T14:07:22;1.55;;;0.93;;
14292;SDS011;62290;59.420;17.842;2023-07-31T14:09:50;1.50;;;1.00;;
14292;SDS011;62290;59.420;17.842;2023-07-31T14:12:18;1.65;;;0.90;;
14292;SDS011;62290;59.420;17.842;2023-07-31T14:15:08;0.77;;;0.70;;
14292;SDS011;62290;59.420;17.842;2023-07-31T14:17:36;2.75;;;1.10;;
14292;SDS011;62290;59.420;17.842;2023-07-31T14:20:05;2.95;;;1.00;;
14292;SDS011;62290;59.420;17.842;2023-07-31T14:22:34;1.10;;;0.98;;
14292;SDS011;62290;59.420;17.842;2023-07-31T14:25:04;2.30;;;1.30;;
14292;SDS011;62290;59.420;17.842;2023-07-31T14:27:33;1.67;;;0.93;;
14292;SDS011;62290;59.420;17.842;2023-07-31T14:30:01;0.95;;;0.73;;
14292;SDS011;62290;59.420;17.842;2023-07-31T14:32:30;1.88;;;1.00;;
14292;SDS011;62290;59.420;17.842;2023-07-31T14:34:58;2.10;;;1.17;;
14292;SDS011;62290;59.420;17.842;2023-07-31T14:37:26;1.90;;;1.10;;
14292;SDS011;62290;59.420;17.842;2023-07-31T14:40:04;1.70;;;1.08;;
14292;SDS011;62290;59.420;17.842;2023-07-31T14:42:34;2.60;;;1.13;;
14292;SDS011;62290;59.420;17.842;2023-07-31T14:45:02;3.05;;;1.08;;
14292;SDS011;62290;59.420;17.842;2023-07-31T14:47:31;2.58;;;1.00;;
14292;SDS011;62290;59.420;17.842;2023-07-31T14:50:00;4.45;;;1.15;;
14292;SDS011;62290;59.420;17.842;2023-07-31T14:52:28;4.38;;;1.33;;